Time;durP1;ratioP1;P1;durP2;ratioP2;P2;SDS_P1;SDS_P2;PMS_P1;PMS_P2;Temp;Humidity;BMP_temperature;BMP_pressure;BME280_temperature;BME280_humidity;BME280_pressure;Samples;Min_cycle;Max_cycle;Signal;HPM_P1;HPM_P2
2024/02/25 00:01:58;;;;;;;22.45;3.67;;;;;;;;;;4993210;28;20060;-77
2024/02/25 00:04:25;;;;;;;19.55;3.45;;;;;;;;;;4991170;28;20517;-78
2024/02/25 00:06:51;;;;;;;27.20;3.15;;;;;;;;;;4990202;28;20054;-78
2024/02/25 00:09:18;;;;;;;25.45;3.80;;;;;;;;;;4992546;28;20055;-78
2024/02/25 00:11:45;;;;;;;21.23;3.45;;;;;;;;;;4993121;28;20050;-78
2024/02/25 00:14:12;;;;;;;14.70;2.60;;;;;;;;;;4992615;28;20136;-77
2024/02/25 00:16:39;;;;;;;17.42;3.03;;;;;;;;;;4993411;28;20485;-77
2024/02/25 00:19:06;;;;;;;21.40;3.22;;;;;;;;;;4994767;28;20073;-77
2024/02/25 00:21:33;;;;;;;24.10;3.72;;;;;;;;;;4998069;28;20107;-78
2024/02/25 00:23:59;;;;;;;19.83;3.33;;;;;;;;;;5013364;28;20046;-77
2024/02/25 00:26:27;;;;;;;24.23;4.30;;;;;;;;;;4994096;28;20085;-78
2024/02/25 00:28:53;;;;;;;24.13;5.13;;;;;;;;;;4992330;28;20047;-77
2024/02/25 00:31:20;;;;;;;29.92;6.97;;;;;;;;;;4992210;28;20050;-78
2024/02/25 00:33:47;;;;;;;22.77;5.68;;;;;;;;;;4992454;28;20186;-77
2024/02/25 00:36:14;;;;;;;33.88;6.80;;;;;;;;;;4992208;28;20042;-78
2024/02/25 00:38:41;;;;;;;25.60;4.70;;;;;;;;;;4993053;28;20105;-78
2024/02/25 00:41:08;;;;;;;36.30;6.03;;;;;;;;;;4993814;28;20556;-77
2024/02/25 00:43:35;;;;;;;35.35;5.53;;;;;;;;;;4994509;28;20057;-77
2024/02/25 00:46:01;;;;;;;25.23;5.50;;;;;;;;;;4993317;28;20042;-77
2024/02/25 00:48:28;;;;;;;22.80;4.53;;;;;;;;;;4993799;28;20050;-78
2024/02/25 00:50:55;;;;;;;34.28;5.10;;;;;;;;;;4994377;28;20129;-78
2024/02/25 00:53:22;;;;;;;26.92;4.15;;;;;;;;;;4993847;28;20481;-78
2024/02/25 00:55:49;;;;;;;14.68;3.55;;;;;;;;;;4994380;28;20547;-78
2024/02/25 00:58:16;;;;;;;22.95;3.72;;;;;;;;;;4993714;28;20038;-78
2024/02/25 01:00:42;;;;;;;19.65;3.63;;;;;;;;;;4994174;28;20038;-77
2024/02/25 01:03:09;;;;;;;30.30;4.38;;;;;;;;;;4993519;28;20504;-77
2024/02/25 01:05:36;;;;;;;25.58;3.33;;;;;;;;;;4994053;28;20146;-77
2024/02/25 01:08:04;;;;;;;20.23;3.65;;;;;;;;;;4993527;28;20120;-78
2024/02/25 01:10:31;;;;;;;12.55;2.83;;;;;;;;;;4993765;28;20078;-77
2024/02/25 01:12:57;;;;;;;18.88;3.58;;;;;;;;;;4993845;28;20145;-77
2024/02/25 01:15:24;;;;;;;18.88;2.55;;;;;;;;;;4993426;28;20054;-78
2024/02/25 01:17:51;;;;;;;13.30;2.25;;;;;;;;;;4993833;28;20046;-76
2024/02/25 01:20:18;;;;;;;13.65;2.60;;;;;;;;;;4993307;28;20500;-76
2024/02/25 01:22:45;;;;;;;12.95;2.20;;;;;;;;;;4993851;28;20050;-78
2024/02/25 01:25:11;;;;;;;12.73;2.85;;;;;;;;;;4993254;28;20043;-78
2024/02/25 01:27:39;;;;;;;12.40;1.90;;;;;;;;;;4993700;28;20046;-78
2024/02/25 01:30:06;;;;;;;13.00;2.38;;;;;;;;;;4993204;28;20540;-78
2024/02/25 01:32:33;;;;;;;12.57;2.13;;;;;;;;;;4993772;28;20085;-77
2024/02/25 01:35:00;;;;;;;17.10;2.00;;;;;;;;;;4993456;28;20129;-78
2024/02/25 01:37:26;;;;;;;15.00;2.10;;;;;;;;;;4993170;28;20117;-77
2024/02/25 01:39:53;;;;;;;13.23;1.95;;;;;;;;;;4993095;28;20046;-77
2024/02/25 01:42:22;;;;;;;13.88;2.35;;;;;;;;;;4992771;28;20074;-78
2024/02/25 01:44:57;;;;;;;13.45;2.05;;;;;;;;;;4993516;28;20362;-77
2024/02/25 01:47:25;;;;;;;10.45;1.65;;;;;;;;;;4992989;28;20061;-77
2024/02/25 01:49:52;;;;;;;14.75;2.10;;;;;;;;;;4993298;28;20050;-77
2024/02/25 01:52:21;;;;;;;22.33;2.67;;;;;;;;;;4992913;28;20045;-77
2024/02/25 01:54:48;;;;;;;14.02;1.75;;;;;;;;;;4993434;28;20496;-77
2024/02/25 01:57:15;;;;;;;21.53;3.03;;;;;;;;;;4992973;28;20394;-77
2024/02/25 01:59:43;;;;;;;12.57;1.20;;;;;;;;;;4993428;28;20053;-78
2024/02/25 02:02:13;;;;;;;17.52;1.90;;;;;;;;;;4992817;28;20062;-78
2024/02/25 02:04:43;;;;;;;18.15;1.95;;;;;;;;;;4993352;28;20514;-77
2024/02/25 02:07:11;;;;;;;25.42;3.38;;;;;;;;;;4992587;28;20050;-76
2024/02/25 02:09:38;;;;;;;12.95;2.00;;;;;;;;;;4993044;28;20500;-77
2024/02/25 02:12:06;;;;;;;11.20;1.75;;;;;;;;;;4992933;28;20042;-76
2024/02/25 02:14:33;;;;;;;13.40;2.50;;;;;;;;;;4993334;28;20042;-77
2024/02/25 02:17:03;;;;;;;12.02;2.35;;;;;;;;;;4993072;28;20066;-77
2024/02/25 02:19:30;;;;;;;18.55;2.90;;;;;;;;;;4992920;28;20050;-78
2024/02/25 02:21:57;;;;;;;10.57;1.33;;;;;;;;;;4991703;28;20133;-77
2024/02/25 02:24:24;;;;;;;14.32;1.67;;;;;;;;;;5008621;28;20445;-77
2024/02/25 02:26:51;;;;;;;14.60;1.58;;;;;;;;;;4976574;28;20061;-77
2024/02/25 02:29:18;;;;;;;10.23;1.83;;;;;;;;;;4992318;28;20046;-78
2024/02/25 02:31:44;;;;;;;9.88;1.63;;;;;;;;;;4994018;28;20046;-78
2024/02/25 02:34:11;;;;;;;18.77;1.75;;;;;;;;;;4993498;28;20108;-77
2024/02/25 02:36:38;;;;;;;7.88;1.48;;;;;;;;;;4993489;28;20042;-78
2024/02/25 02:39:06;;;;;;;10.73;1.25;;;;;;;;;;4993424;28;20140;-77
2024/02/25 02:41:33;;;;;;;11.02;1.45;;;;;;;;;;4993799;28;20065;-78
2024/02/25 02:44:00;;;;;;;11.93;1.45;;;;;;;;;;4992787;28;20042;-77
2024/02/25 02:46:26;;;;;;;6.22;0.93;;;;;;;;;;4991000;28;20112;-77
2024/02/25 02:48:53;;;;;;;10.25;1.30;;;;;;;;;;4991537;28;20046;-78
2024/02/25 02:51:20;;;;;;;9.70;1.30;;;;;;;;;;4991553;28;20054;-77
2024/02/25 02:53:47;;;;;;;6.85;1.10;;;;;;;;;;4993951;28;20477;-78
2024/02/25 02:56:14;;;;;;;3.47;0.90;;;;;;;;;;4995094;28;20050;-78
2024/02/25 02:58:41;;;;;;;8.57;1.20;;;;;;;;;;4996717;28;20383;-77
2024/02/25 03:01:07;;;;;;;8.70;1.08;;;;;;;;;;4996148;28;20062;-77
2024/02/25 03:03:34;;;;;;;4.28;0.77;;;;;;;;;;4996401;28;20046;-78
2024/02/25 03:06:04;;;;;;;8.02;0.95;;;;;;;;;;4996092;28;20081;-77
2024/02/25 03:08:32;;;;;;;2.65;0.80;;;;;;;;;;4996356;28;20069;-78
2024/02/25 03:10:59;;;;;;;2.20;0.40;;;;;;;;;;4996150;28;20052;-77
2024/02/25 03:13:25;;;;;;;4.18;0.60;;;;;;;;;;4996008;28;20090;-78
2024/02/25 03:15:52;;;;;;;7.88;0.98;;;;;;;;;;4996344;28;20041;-78
2024/02/25 03:18:19;;;;;;;4.72;1.00;;;;;;;;;;4995717;28;20049;-77
2024/02/25 03:20:46;;;;;;;5.47;0.50;;;;;;;;;;4996162;28;20125;-77
2024/02/25 03:23:13;;;;;;;3.70;0.45;;;;;;;;;;4995741;28;20054;-77
2024/02/25 03:25:40;;;;;;;4.95;0.40;;;;;;;;;;4995878;28;20108;-77
2024/02/25 03:28:06;;;;;;;5.28;0.68;;;;;;;;;;4995289;28;20541;-78
2024/02/25 03:30:33;;;;;;;2.88;0.40;;;;;;;;;;4996023;28;20042;-78
2024/02/25 03:33:01;;;;;;;3.45;0.40;;;;;;;;;;4995818;28;20062;-78
2024/02/25 03:35:31;;;;;;;3.90;0.70;;;;;;;;;;4995241;28;20053;-78
2024/02/25 03:38:00;;;;;;;1.70;0.40;;;;;;;;;;4995890;28;20050;-77
2024/02/25 03:40:26;;;;;;;4.30;0.40;;;;;;;;;;4995243;28;20096;-78
2024/02/25 03:42:54;;;;;;;4.28;0.60;;;;;;;;;;4995582;28;20042;-77
2024/02/25 03:45:20;;;;;;;3.03;0.55;;;;;;;;;;4995195;28;20351;-78
2024/02/25 03:47:48;;;;;;;3.97;0.73;;;;;;;;;;4995431;28;20042;-78
2024/02/25 03:50:15;;;;;;;6.85;0.50;;;;;;;;;;4994903;28;20053;-77
2024/02/25 03:52:42;;;;;;;3.40;0.30;;;;;;;;;;4995531;28;20058;-77
2024/02/25 03:55:09;;;;;;;2.95;0.30;;;;;;;;;;4994567;28;20126;-78
2024/02/25 03:57:38;;;;;;;1.92;0.30;;;;;;;;;;4993694;28;20053;-77
2024/02/25 04:00:08;;;;;;;;;;;;;;;;;;4994529;28;20449;-78
2024/02/25 04:02:36;;;;;;;1.67;0.28;;;;;;;;;;4993523;28;19925;-77
2024/02/25 04:05:04;;;;;;;3.83;0.82;;;;;;;;;;4992196;28;20047;-77
2024/02/25 04:07:31;;;;;;;5.00;0.63;;;;;;;;;;4992302;28;20109;-77
2024/02/25 04:09:59;;;;;;;2.28;0.35;;;;;;;;;;4993694;28;20077;-76
2024/02/25 04:12:26;;;;;;;2.50;0.40;;;;;;;;;;4992944;28;20053;-77
2024/02/25 04:14:52;;;;;;;3.28;0.70;;;;;;;;;;4994282;28;20474;-77
2024/02/25 04:17:19;;;;;;;5.82;0.93;;;;;;;;;;4995205;28;20042;-76
2024/02/25 04:19:46;;;;;;;4.35;0.35;;;;;;;;;;4995355;28;20049;-76
2024/02/25 04:22:13;;;;;;;2.83;0.55;;;;;;;;;;4995027;28;20069;-77
2024/02/25 04:24:39;;;;;;;3.00;0.50;;;;;;;;;;4995030;28;20039;-77
2024/02/25 04:27:06;;;;;;;5.10;0.68;;;;;;;;;;4994264;28;20052;-78
2024/02/25 04:29:33;;;;;;;7.80;0.65;;;;;;;;;;4995047;28;20042;-78
2024/02/25 04:32:00;;;;;;;7.57;0.60;;;;;;;;;;4995349;28;20049;-77
2024/02/25 04:34:27;;;;;;;5.78;0.70;;;;;;;;;;4994063;28;20100;-77
2024/02/25 04:36:54;;;;;;;4.07;0.43;;;;;;;;;;4994698;28;20088;-78
2024/02/25 04:39:21;;;;;;;4.22;0.40;;;;;;;;;;4994578;28;20042;-77
2024/02/25 04:41:49;;;;;;;4.50;0.40;;;;;;;;;;4994873;28;20046;-77
2024/02/25 04:44:15;;;;;;;4.70;0.50;;;;;;;;;;4994322;28;20428;-76
2024/02/25 04:46:42;;;;;;;1.95;0.30;;;;;;;;;;4994238;28;20495;-77
2024/02/25 04:49:09;;;;;;;0.82;0.30;;;;;;;;;;4993539;28;20129;-77
2024/02/25 04:51:36;;;;;;;3.35;0.32;;;;;;;;;;4994544;28;20430;-77
2024/02/25 04:54:03;;;;;;;5.97;0.80;;;;;;;;;;4994358;28;20073;-77
2024/02/25 04:56:30;;;;;;;5.00;0.30;;;;;;;;;;4994143;28;20050;-77
2024/02/25 04:58:57;;;;;;;2.90;0.50;;;;;;;;;;5009233;28;20426;-77
2024/02/25 05:01:24;;;;;;;3.75;0.40;;;;;;;;;;4993985;28;21782;-77
2024/02/25 05:03:50;;;;;;;3.50;0.40;;;;;;;;;;4994309;28;20374;-77
2024/02/25 05:06:17;;;;;;;3.63;0.63;;;;;;;;;;4993838;28;20065;-77
2024/02/25 05:08:44;;;;;;;9.23;0.70;;;;;;;;;;4994200;28;20074;-77
2024/02/25 05:11:11;;;;;;;7.50;0.70;;;;;;;;;;4993634;28;20078;-77
2024/02/25 05:13:38;;;;;;;4.25;0.60;;;;;;;;;;4994206;28;20053;-78
2024/02/25 05:16:06;;;;;;;8.23;0.75;;;;;;;;;;4992829;28;20042;-76
2024/02/25 05:18:33;;;;;;;3.83;0.52;;;;;;;;;;4994057;28;20046;-77
2024/02/25 05:21:02;;;;;;;4.68;0.55;;;;;;;;;;4994090;28;20049;-78
2024/02/25 05:23:29;;;;;;;5.03;0.40;;;;;;;;;;4993620;28;20050;-78
2024/02/25 05:25:56;;;;;;;7.57;0.60;;;;;;;;;;4993759;28;20042;-77
2024/02/25 05:28:23;;;;;;;3.30;0.38;;;;;;;;;;4993140;28;20059;-77
2024/02/25 05:30:50;;;;;;;2.50;0.20;;;;;;;;;;4993606;28;20038;-77
2024/02/25 05:33:17;;;;;;;2.92;0.35;;;;;;;;;;4993266;28;20047;-77
2024/02/25 05:35:44;;;;;;;3.22;0.68;;;;;;;;;;4993541;28;20073;-77
2024/02/25 05:38:11;;;;;;;2.65;0.40;;;;;;;;;;4993330;28;20042;-77
2024/02/25 05:40:40;;;;;;;4.75;0.40;;;;;;;;;;4993583;28;20046;-77
2024/02/25 05:43:07;;;;;;;2.58;0.30;;;;;;;;;;4993124;28;20042;-77
2024/02/25 05:45:34;;;;;;;2.72;0.20;;;;;;;;;;4993570;28;20050;-78
2024/02/25 05:48:02;;;;;;;1.20;0.20;;;;;;;;;;4993547;28;20038;-76
2024/02/25 05:50:29;;;;;;;1.98;0.55;;;;;;;;;;4992462;28;20551;-77
2024/02/25 05:52:55;;;;;;;0.85;0.10;;;;;;;;;;4990435;28;20039;-76
2024/02/25 05:55:22;;;;;;;0.77;0.20;;;;;;;;;;4990298;28;20050;-77
2024/02/25 05:57:49;;;;;;;0.52;0.10;;;;;;;;;;4991927;28;20089;-77
2024/02/25 06:00:16;;;;;;;1.17;0.10;;;;;;;;;;4991195;28;20042;-77
2024/02/25 06:02:46;;;;;;;1.80;0.35;;;;;;;;;;4991690;28;20078;-77
2024/02/25 06:05:14;;;;;;;2.22;0.20;;;;;;;;;;4991510;28;20057;-78
2024/02/25 06:07:42;;;;;;;1.15;0.13;;;;;;;;;;4991454;28;20058;-77
2024/02/25 06:10:09;;;;;;;0.43;0.10;;;;;;;;;;4991283;28;20046;-78
2024/02/25 06:12:37;;;;;;;3.22;0.20;;;;;;;;;;4992271;28;20050;-77
2024/02/25 06:15:07;;;;;;;4.50;0.35;;;;;;;;;;4993410;28;20065;-77
2024/02/25 06:17:33;;;;;;;1.08;0.20;;;;;;;;;;4993346;28;20057;-77
2024/02/25 06:20:00;;;;;;;2.15;0.63;;;;;;;;;;4993386;28;20433;-77
2024/02/25 06:22:27;;;;;;;2.55;0.20;;;;;;;;;;4992903;28;20050;-77
2024/02/25 06:24:54;;;;;;;2.17;0.30;;;;;;;;;;4990536;28;20421;-78
2024/02/25 06:27:20;;;;;;;2.90;0.20;;;;;;;;;;4994799;28;20043;-77
2024/02/25 06:29:47;;;;;;;7.88;0.30;;;;;;;;;;4996934;28;20042;-78
2024/02/25 06:32:14;;;;;;;3.20;0.30;;;;;;;;;;4996489;28;20100;-77
2024/02/25 06:34:41;;;;;;;2.60;0.20;;;;;;;;;;4997067;28;20054;-77
2024/02/25 06:37:08;;;;;;;2.22;0.22;;;;;;;;;;4996574;28;20097;-77
2024/02/25 06:39:35;;;;;;;6.53;0.30;;;;;;;;;;4996845;28;20038;-77
2024/02/25 06:42:02;;;;;;;2.78;0.20;;;;;;;;;;4996871;28;20034;-77
2024/02/25 06:44:30;;;;;;;2.85;0.13;;;;;;;;;;4996442;28;20065;-77
2024/02/25 06:46:57;;;;;;;6.40;0.20;;;;;;;;;;4996776;28;20053;-78
2024/02/25 06:49:27;;;;;;;3.10;0.13;;;;;;;;;;4996173;28;20373;-78
2024/02/25 06:51:55;;;;;;;1.20;0.10;;;;;;;;;;4996626;28;20066;-78
2024/02/25 06:54:21;;;;;;;6.82;0.20;;;;;;;;;;4996217;28;20038;-77
2024/02/25 06:56:48;;;;;;;2.97;0.20;;;;;;;;;;4996457;28;20039;-77
2024/02/25 06:59:15;;;;;;;3.30;0.10;;;;;;;;;;4996209;28;20046;-77
2024/02/25 07:01:41;;;;;;;4.80;0.25;;;;;;;;;;4996078;28;20126;-77
2024/02/25 07:04:08;;;;;;;4.65;0.20;;;;;;;;;;4995521;28;20050;-80
2024/02/25 07:06:35;;;;;;;0.13;0.10;;;;;;;;;;4995191;28;20374;-80
2024/02/25 07:09:03;;;;;;;1.15;0.20;;;;;;;;;;4962842;28;20069;-77
2024/02/25 07:11:31;;;;;;;0.15;0.10;;;;;;;;;;4994206;28;20416;-78
2024/02/25 07:13:58;;;;;;;0.10;0.10;;;;;;;;;;4988247;28;20077;-77
2024/02/25 07:16:24;;;;;;;1.02;0.30;;;;;;;;;;4993080;28;20285;-76
2024/02/25 07:18:51;;;;;;;0.60;0.20;;;;;;;;;;4994742;28;20042;-77
2024/02/25 07:21:18;;;;;;;0.15;0.10;;;;;;;;;;4976791;28;20046;-77
2024/02/25 07:23:45;;;;;;;0.88;0.10;;;;;;;;;;4992429;28;20046;-76
2024/02/25 07:26:13;;;;;;;0.57;0.17;;;;;;;;;;4992595;28;20038;-77
2024/02/25 07:28:41;;;;;;;0.75;0.20;;;;;;;;;;4992096;28;20054;-77
2024/02/25 07:31:15;;;;;;;1.35;0.22;;;;;;;;;;4993142;28;20564;-77
2024/02/25 07:33:43;;;;;;;6.80;5.13;;;;;;;;;;4993780;28;20490;-77
2024/02/25 07:36:11;;;;;;;2.35;1.70;;;;;;;;;;4993878;28;20042;-77
2024/02/25 07:38:39;;;;;;;10.18;5.30;;;;;;;;;;4993432;28;20493;-77
2024/02/25 07:41:07;;;;;;;6.88;5.07;;;;;;;;;;4993680;28;20039;-77
2024/02/25 07:43:35;;;;;;;3.25;2.08;;;;;;;;;;4993892;28;20120;-78
2024/02/25 07:46:02;;;;;;;1.45;0.90;;;;;;;;;;4992898;28;20045;-78
2024/02/25 07:48:29;;;;;;;0.55;0.50;;;;;;;;;;5004378;28;20049;-77
2024/02/25 07:50:57;;;;;;;2.03;0.75;;;;;;;;;;4996130;28;20042;-77
2024/02/25 07:53:24;;;;;;;9.32;3.60;;;;;;;;;;4993676;28;20561;-78
2024/02/25 07:55:51;;;;;;;9.38;3.03;;;;;;;;;;4993858;28;20105;-78
2024/02/25 07:58:17;;;;;;;33.60;2.95;;;;;;;;;;4993574;28;20050;-77
2024/02/25 08:00:44;;;;;;;17.95;2.63;;;;;;;;;;4993282;28;20061;-78
2024/02/25 08:03:11;;;;;;;30.90;2.80;;;;;;;;;;4994205;28;20066;-78
2024/02/25 08:05:38;;;;;;;3.22;0.70;;;;;;;;;;4992310;28;20289;-78
2024/02/25 08:08:05;;;;;;;6.07;1.40;;;;;;;;;;4993103;28;20500;-78
2024/02/25 08:10:32;;;;;;;3.85;1.10;;;;;;;;;;4993357;28;20363;-78
2024/02/25 08:12:59;;;;;;;7.85;1.60;;;;;;;;;;4992744;28;20042;-78
2024/02/25 08:15:26;;;;;;;11.30;2.47;;;;;;;;;;4992446;28;20092;-77
2024/02/25 08:17:53;;;;;;;6.97;2.28;;;;;;;;;;4989270;28;20054;-78
2024/02/25 08:20:20;;;;;;;12.63;3.38;;;;;;;;;;4992695;28;20062;-78
2024/02/25 08:22:47;;;;;;;10.20;1.52;;;;;;;;;;4993042;28;20305;-78
2024/02/25 08:25:14;;;;;;;10.23;3.53;;;;;;;;;;4991460;28;20453;-79
2024/02/25 08:27:40;;;;;;;9.75;3.60;;;;;;;;;;4985864;28;20046;-78
2024/02/25 08:30:07;;;;;;;8.77;2.17;;;;;;;;;;4986736;28;20042;-79
2024/02/25 08:32:35;;;;;;;11.18;2.05;;;;;;;;;;4993437;28;20054;-79
2024/02/25 08:35:03;;;;;;;20.48;3.20;;;;;;;;;;4993154;28;20410;-78
2024/02/25 08:37:29;;;;;;;22.15;5.93;;;;;;;;;;4987425;28;20047;-79
2024/02/25 08:39:56;;;;;;;23.00;5.40;;;;;;;;;;4992999;28;20046;-78
2024/02/25 08:42:23;;;;;;;38.13;7.55;;;;;;;;;;4992634;28;20047;-78
2024/02/25 08:44:49;;;;;;;40.42;5.85;;;;;;;;;;4999458;28;20045;-79
2024/02/25 08:47:16;;;;;;;42.28;5.53;;;;;;;;;;4993577;28;20042;-79
2024/02/25 08:49:43;;;;;;;43.72;5.40;;;;;;;;;;4992671;28;20054;-79
2024/02/25 08:52:10;;;;;;;53.38;5.60;;;;;;;;;;4992342;28;20446;-79
2024/02/25 08:54:38;;;;;;;47.17;5.88;;;;;;;;;;4992009;28;20074;-78
2024/02/25 08:57:05;;;;;;;50.53;5.93;;;;;;;;;;4990444;28;20054;-79
2024/02/25 08:59:32;;;;;;;43.25;5.32;;;;;;;;;;4992352;28;20389;-79
2024/02/25 09:01:59;;;;;;;52.55;4.90;;;;;;;;;;4990643;28;20077;-78
2024/02/25 09:04:30;;;;;;;43.85;7.15;;;;;;;;;;4991939;28;20383;-78
2024/02/25 09:06:58;;;;;;;49.65;6.57;;;;;;;;;;4992529;28;20108;-79
2024/02/25 09:09:26;;;;;;;50.40;6.18;;;;;;;;;;4990474;28;20058;-79
2024/02/25 09:11:54;;;;;;;47.83;5.90;;;;;;;;;;4989148;28;20477;-80
2024/02/25 09:14:21;;;;;;;45.03;4.93;;;;;;;;;;4984794;28;20477;-79
2024/02/25 09:16:48;;;;;;;57.65;5.40;;;;;;;;;;4975849;28;20038;-79
2024/02/25 09:19:15;;;;;;;53.95;5.32;;;;;;;;;;4979911;28;20046;-79
2024/02/25 09:21:42;;;;;;;48.63;5.82;;;;;;;;;;4984366;28;20474;-80
2024/02/25 09:24:09;;;;;;;53.35;5.72;;;;;;;;;;4984922;28;20326;-79
2024/02/25 09:26:36;;;;;;;55.20;6.25;;;;;;;;;;4986008;28;20065;-80
2024/02/25 09:29:03;;;;;;;60.70;8.20;;;;;;;;;;4973789;28;20058;-79
2024/02/25 09:31:30;;;;;;;42.33;5.10;;;;;;;;;;4989154;28;20058;-79
2024/02/25 09:33:58;;;;;;;43.53;4.63;;;;;;;;;;4990137;28;20050;-79
2024/02/25 09:36:26;;;;;;;36.08;4.38;;;;;;;;;;4990102;28;20104;-79
2024/02/25 09:38:53;;;;;;;40.75;4.65;;;;;;;;;;4985686;28;20066;-79
2024/02/25 09:41:28;;;;;;;35.17;4.63;;;;;;;;;;4987458;28;20043;-79
2024/02/25 09:43:56;;;;;;;40.45;6.30;;;;;;;;;;4986963;28;20046;-79
2024/02/25 09:46:26;;;;;;;46.65;4.57;;;;;;;;;;4989862;28;20134;-79
2024/02/25 09:48:53;;;;;;;35.58;5.32;;;;;;;;;;4973984;28;20047;-79
2024/02/25 09:51:23;;;;;;;38.42;4.72;;;;;;;;;;4991295;28;20092;-78
2024/02/25 09:53:55;;;;;;;47.80;5.18;;;;;;;;;;4988196;28;20053;-79
2024/02/25 09:56:23;;;;;;;46.03;5.22;;;;;;;;;;4991329;28;20039;-79
2024/02/25 09:58:50;;;;;;;33.60;5.10;;;;;;;;;;4990948;28;20046;-78
2024/02/25 10:01:17;;;;;;;34.00;5.18;;;;;;;;;;4985362;28;20096;-79
2024/02/25 10:03:44;;;;;;;21.58;3.45;;;;;;;;;;4996782;28;20433;-79
2024/02/25 10:06:12;;;;;;;29.48;4.65;;;;;;;;;;4995173;28;20396;-78
2024/02/25 10:08:53;;;;;;;16.13;2.47;;;;;;;;;;5001927;28;20056;-79
2024/02/25 10:11:23;;;;;;;20.48;2.88;;;;;;;;;;4989890;28;20038;-79
2024/02/25 10:13:50;;;;;;;25.55;4.50;;;;;;;;;;4996092;28;20043;-79
2024/02/25 10:16:18;;;;;;;25.27;4.07;;;;;;;;;;4985512;28;20035;-79
2024/02/25 10:18:50;;;;;;;30.75;4.82;;;;;;;;;;4990899;28;20053;-85
2024/02/25 10:21:20;;;;;;;31.35;4.35;;;;;;;;;;4961615;28;20039;-79
2024/02/25 10:23:56;;;;;;;34.58;4.97;;;;;;;;;;4997929;28;20507;-79
2024/02/25 10:26:25;;;;;;;48.30;7.63;;;;;;;;;;5000824;28;20145;-79
2024/02/25 10:29:05;;;;;;;;;;;;;;;;;;5010089;28;20509;-79
2024/02/25 10:31:33;;;;;;;51.78;18.67;;;;;;;;;;5003050;28;19925;-79
2024/02/25 10:34:00;;;;;;;30.88;6.82;;;;;;;;;;4992537;28;20046;-78
2024/02/25 10:36:27;;;;;;;52.38;6.70;;;;;;;;;;4997481;28;20069;-79
2024/02/25 10:38:55;;;;;;;41.00;5.72;;;;;;;;;;4980485;28;20042;-80
2024/02/25 10:41:23;;;;;;;51.17;5.85;;;;;;;;;;4996699;28;20039;-79
2024/02/25 10:44:02;;;;;;;55.53;6.57;;;;;;;;;;4996115;28;20532;-80
2024/02/25 10:46:36;;;;;;;;;;;;;;;;;;4995780;28;20065;-79
2024/02/25 10:49:04;;;;;;;51.92;8.65;;;;;;;;;;4992801;28;19921;-79
2024/02/25 10:51:33;;;;;;;48.13;5.80;;;;;;;;;;4993174;28;20042;-79
2024/02/25 10:54:00;;;;;;;;;;;;;;;;;;4995234;28;20046;-79
2024/02/25 10:56:31;;;;;;;43.40;5.72;;;;;;;;;;4991478;28;19926;-79
2024/02/25 10:58:59;;;;;;;51.75;6.85;;;;;;;;;;4996320;28;20101;-79
2024/02/25 11:01:27;;;;;;;41.25;7.15;;;;;;;;;;4992472;28;20125;-79
2024/02/25 11:03:54;;;;;;;41.33;6.60;;;;;;;;;;4988446;28;20050;-79
2024/02/25 11:06:54;;;;;;;42.75;5.15;;;;;;;;;;4995038;28;20062;-79
2024/02/25 11:09:22;;;;;;;42.63;6.82;;;;;;;;;;4994198;28;20058;-79
2024/02/25 11:11:49;;;;;;;57.05;8.45;;;;;;;;;;4988451;28;20386;-79
2024/02/25 11:14:35;;;;;;;51.00;7.32;;;;;;;;;;4977582;28;20043;-79
2024/02/25 11:17:03;;;;;;;52.80;8.07;;;;;;;;;;4982806;28;20126;-78
2024/02/25 11:19:30;;;;;;;47.53;6.50;;;;;;;;;;4960268;28;20081;-78
2024/02/25 11:21:57;;;;;;;49.28;7.05;;;;;;;;;;4992925;28;20042;-79
2024/02/25 11:24:43;;;;;;;48.22;7.28;;;;;;;;;;4993561;28;20050;-79
2024/02/25 11:27:12;;;;;;;47.38;6.25;;;;;;;;;;4986235;28;20050;-79
2024/02/25 11:29:40;;;;;;;;;;;;;;;;;;4993858;28;20051;-79
2024/02/25 11:32:07;;;;;;;50.43;5.57;;;;;;;;;;4993890;28;20317;-79
2024/02/25 11:34:35;;;;;;;42.83;6.50;;;;;;;;;;4993768;28;20344;-79
2024/02/25 11:37:03;;;;;;;47.30;7.47;;;;;;;;;;4991392;28;20092;-79
2024/02/25 11:39:34;;;;;;;49.17;6.30;;;;;;;;;;4995394;28;20543;-79
2024/02/25 11:42:03;;;;;;;45.30;6.10;;;;;;;;;;4993883;28;20687;-79
2024/02/25 11:44:32;;;;;;;46.05;5.45;;;;;;;;;;4989592;28;20489;-79
2024/02/25 11:47:01;;;;;;;43.33;6.45;;;;;;;;;;4993800;28;20104;-79
2024/02/25 11:49:29;;;;;;;48.95;6.97;;;;;;;;;;4991225;28;20046;-79
2024/02/25 11:51:57;;;;;;;53.90;6.28;;;;;;;;;;4985285;28;20046;-78
2024/02/25 11:54:29;;;;;;;59.38;19.08;;;;;;;;;;4991154;28;20529;-79
2024/02/25 11:56:56;;;;;;;47.35;6.20;;;;;;;;;;4990034;28;20054;-78
2024/02/25 11:59:23;;;;;;;49.67;6.97;;;;;;;;;;4990265;28;20042;-79
2024/02/25 12:01:52;;;;;;;41.85;5.75;;;;;;;;;;4993779;28;20100;-79
2024/02/25 12:04:19;;;;;;;43.08;5.38;;;;;;;;;;4990433;28;20046;-79
2024/02/25 12:06:46;;;;;;;44.00;6.85;;;;;;;;;;4979325;28;20065;-79
2024/02/25 12:09:15;;;;;;;43.55;5.30;;;;;;;;;;4992718;28;20092;-79
2024/02/25 12:11:43;;;;;;;29.20;5.60;;;;;;;;;;4994720;28;20044;-79
2024/02/25 12:14:15;;;;;;;42.03;6.10;;;;;;;;;;4986796;28;20382;-78
2024/02/25 12:16:44;;;;;;;39.20;5.97;;;;;;;;;;4992489;28;20043;-79
2024/02/25 12:19:12;;;;;;;38.42;5.35;;;;;;;;;;4990675;28;20042;-79
2024/02/25 12:21:40;;;;;;;;;;;;;;;;;;4988485;28;21223;-78
2024/02/25 12:24:07;;;;;;;80.22;39.35;;;;;;;;;;4982617;28;20013;-78
2024/02/25 12:26:55;;;;;;;36.53;5.57;;;;;;;;;;4992615;28;20077;-79
2024/02/25 12:29:23;;;;;;;47.63;5.28;;;;;;;;;;4989650;28;20050;-78
2024/02/25 12:31:50;;;;;;;34.40;5.53;;;;;;;;;;4990772;28;20093;-78
2024/02/25 12:34:18;;;;;;;38.88;5.43;;;;;;;;;;4980065;28;20046;-78
2024/02/25 12:36:47;;;;;;;33.47;5.75;;;;;;;;;;4988808;28;20057;-78
2024/02/25 12:39:15;;;;;;;35.25;5.47;;;;;;;;;;4979657;28;20046;-78
2024/02/25 12:41:43;;;;;;;28.35;4.72;;;;;;;;;;4990745;28;20070;-78
2024/02/25 12:44:10;;;;;;;38.83;5.78;;;;;;;;;;4985578;28;20039;-77
2024/02/25 12:46:38;;;;;;;35.83;4.75;;;;;;;;;;4978722;28;20051;-77
2024/02/25 12:49:11;;;;;;;40.00;5.63;;;;;;;;;;4982985;28;20047;-77
2024/02/25 12:51:43;;;;;;;42.60;5.45;;;;;;;;;;4988991;28;20050;-78
2024/02/25 12:54:10;;;;;;;44.63;6.32;;;;;;;;;;4990557;28;20125;-78
2024/02/25 12:56:38;;;;;;;42.70;6.10;;;;;;;;;;4991159;28;20046;-78
2024/02/25 12:59:07;;;;;;;30.80;5.28;;;;;;;;;;4992232;28;20161;-78
2024/02/25 13:01:33;;;;;;;45.92;4.97;;;;;;;;;;4991912;28;20059;-78
2024/02/25 13:04:03;;;;;;;36.83;6.32;;;;;;;;;;4982482;28;20054;-78
2024/02/25 13:06:33;;;;;;;38.63;6.70;;;;;;;;;;4983192;28;20136;-78
2024/02/25 13:09:01;;;;;;;47.08;8.10;;;;;;;;;;4983859;28;20054;-78
2024/02/25 13:11:30;;;;;;;50.17;6.97;;;;;;;;;;4988089;28;20056;-78
2024/02/25 13:13:57;;;;;;;46.30;6.70;;;;;;;;;;4989072;28;20105;-77
2024/02/25 13:16:24;;;;;;;47.00;7.05;;;;;;;;;;4991294;28;20437;-78
2024/02/25 13:18:51;;;;;;;40.35;5.97;;;;;;;;;;4990407;28;20433;-78
2024/02/25 13:21:18;;;;;;;42.67;5.60;;;;;;;;;;4990151;28;20477;-78
2024/02/25 13:23:45;;;;;;;30.48;5.38;;;;;;;;;;4991680;28;20045;-78
2024/02/25 13:26:12;;;;;;;25.10;3.40;;;;;;;;;;4984714;28;20041;-78
2024/02/25 13:28:39;;;;;;;19.02;3.55;;;;;;;;;;4987987;28;20045;-77
2024/02/25 13:31:05;;;;;;;20.63;3.15;;;;;;;;;;4984637;28;20057;-78
2024/02/25 13:33:32;;;;;;;21.92;3.38;;;;;;;;;;4986822;28;20490;-77
2024/02/25 13:36:00;;;;;;;15.15;2.92;;;;;;;;;;4990762;28;20097;-78
2024/02/25 13:38:28;;;;;;;15.23;2.83;;;;;;;;;;4991123;28;20054;-77
2024/02/25 13:40:55;;;;;;;16.63;3.65;;;;;;;;;;4991299;28;20065;-78
2024/02/25 13:43:21;;;;;;;21.13;3.17;;;;;;;;;;4989188;28;20049;-78
2024/02/25 13:45:53;;;;;;;20.33;3.90;;;;;;;;;;4991984;28;20050;-77
2024/02/25 13:48:24;;;;;;;28.65;6.95;;;;;;;;;;4991192;28;20062;-78
2024/02/25 13:50:51;;;;;;;26.17;6.90;;;;;;;;;;4986522;28;20043;-77
2024/02/25 13:53:19;;;;;;;29.30;6.55;;;;;;;;;;4990629;28;20059;-78
2024/02/25 13:55:47;;;;;;;24.73;4.00;;;;;;;;;;4990233;28;20046;-78
2024/02/25 13:58:14;;;;;;;31.55;5.65;;;;;;;;;;4992261;28;20128;-81
2024/02/25 14:00:41;;;;;;;40.47;6.00;;;;;;;;;;4970842;28;20052;-77
2024/02/25 14:03:11;;;;;;;37.63;6.15;;;;;;;;;;4967151;28;20453;-78
2024/02/25 14:05:38;;;;;;;48.40;5.93;;;;;;;;;;4991770;28;20450;-77
2024/02/25 14:08:06;;;;;;;47.53;5.72;;;;;;;;;;4991341;28;20448;-77
2024/02/25 14:10:33;;;;;;;39.60;5.97;;;;;;;;;;4988665;28;20046;-77
2024/02/25 14:12:59;;;;;;;25.95;4.38;;;;;;;;;;4990539;28;20057;-78
2024/02/25 14:15:26;;;;;;;18.67;3.45;;;;;;;;;;4991340;28;20046;-77
2024/02/25 14:17:56;;;;;;;11.32;3.10;;;;;;;;;;4991744;28;20470;-77
2024/02/25 14:20:33;;;;;;;26.58;3.97;;;;;;;;;;4991349;28;20050;-77
2024/02/25 14:23:03;;;;;;;17.35;2.92;;;;;;;;;;4990404;28;20042;-77
2024/02/25 14:25:30;;;;;;;17.17;2.90;;;;;;;;;;4989924;28;20142;-77
2024/02/25 14:27:57;;;;;;;16.00;2.60;;;;;;;;;;4989398;28;20400;-77
2024/02/25 14:30:24;;;;;;;15.23;3.90;;;;;;;;;;4990541;28;20043;-77
2024/02/25 14:32:51;;;;;;;21.17;4.75;;;;;;;;;;4983230;28;20034;-77
2024/02/25 14:35:18;;;;;;;24.05;3.25;;;;;;;;;;4990633;28;20058;-77
2024/02/25 14:37:45;;;;;;;23.50;4.18;;;;;;;;;;4990423;28;20042;-77
2024/02/25 14:40:11;;;;;;;31.13;4.32;;;;;;;;;;4986490;28;20145;-77